GLD1154 SBFI-SBCT
Flight info
| Callsign | GLD1154 |
|---|---|
| Flight time | 0h 49m |
| Altitude | 29000 |
| Route | KAMIL UM548 PUNTO |
| Aircraft | B738/M-SDFGIRY/S |
Departure
| Time | 2026-04-25 17:16 |
|---|---|
| Airport | Cataratas International Airport (SBFI) |
Arrival
| Time | 2026-04-25 18:05 |
|---|---|
| Airport | Curitiba-Afonso Pena International Airport (SBCT) |
| Time | Latitude | Longitude | Altitude | Speed | Heading |
|---|---|---|---|---|---|
| 2026-04-25 16:46 | -25.59763 | -54.48772 | 766 ft | 0 kts | 220° |
| 2026-04-25 17:09 | -25.59759 | -54.48769 | 766 ft | 3 kts | 221° |
| 2026-04-25 17:09 | -25.59741 | -54.48747 | 766 ft | 4 kts | 237° |
| 2026-04-25 17:09 | -25.59730 | -54.48721 | 766 ft | 4 kts | 266° |
| 2026-04-25 17:10 | -25.59735 | -54.48698 | 766 ft | 1 kts | 310° |
| 2026-04-25 17:12 | -25.59717 | -54.48722 | 766 ft | 9 kts | 310° |
| 2026-04-25 17:12 | -25.59672 | -54.48780 | 766 ft | 14 kts | 310° |
| 2026-04-25 17:12 | -25.59601 | -54.48872 | 766 ft | 16 kts | 310° |
| 2026-04-25 17:13 | -25.59542 | -54.48921 | 767 ft | 0 kts | 1° |
| 2026-04-25 17:13 | -25.59515 | -54.48909 | 768 ft | 10 kts | 33° |
| 2026-04-25 17:13 | -25.59426 | -54.48935 | 768 ft | 21 kts | 310° |
| 2026-04-25 17:14 | -25.59299 | -54.49098 | 767 ft | 31 kts | 310° |
| 2026-04-25 17:14 | -25.59159 | -54.49279 | 766 ft | 30 kts | 310° |
| 2026-04-25 17:14 | -25.59025 | -54.49449 | 766 ft | 29 kts | 311° |
| 2026-04-25 17:14 | -25.58936 | -54.49529 | 765 ft | 7 kts | 258° |
| 2026-04-25 17:15 | -25.58963 | -54.49527 | 766 ft | 5 kts | 123° |
| 2026-04-25 17:15 | -25.59047 | -54.49417 | 766 ft | 54 kts | 130° |
| 2026-04-25 17:15 | -25.59486 | -54.48854 | 768 ft | 136 kts | 130° |
| 2026-04-25 17:15 | -25.60235 | -54.47868 | 981 ft | 186 kts | 130° |
| 2026-04-25 17:16 | -25.61079 | -54.46804 | 2049 ft | 177 kts | 133° |
| 2026-04-25 17:16 | -25.61877 | -54.45814 | 3060 ft | 170 kts | 134° |
| 2026-04-25 17:16 | -25.62669 | -54.44810 | 3641 ft | 188 kts | 133° |
| 2026-04-25 17:16 | -25.63596 | -54.43610 | 3932 ft | 221 kts | 132° |
| 2026-04-25 17:17 | -25.64637 | -54.42257 | 4333 ft | 237 kts | 131° |
| 2026-04-25 17:17 | -25.65723 | -54.40841 | 4922 ft | 245 kts | 130° |
| 2026-04-25 17:17 | -25.66481 | -54.39088 | 5316 ft | 264 kts | 96° |
| 2026-04-25 17:17 | -25.66218 | -54.37050 | 5771 ft | 280 kts | 60° |
| 2026-04-25 17:18 | -25.65050 | -54.35302 | 6482 ft | 287 kts | 52° |
| 2026-04-25 17:18 | -25.64342 | -54.33211 | 7222 ft | 298 kts | 82° |
| 2026-04-25 17:18 | -25.64206 | -54.30909 | 8068 ft | 302 kts | 86° |
| 2026-04-25 17:18 | -25.64086 | -54.28563 | 8833 ft | 308 kts | 85° |
| 2026-04-25 17:19 | -25.63932 | -54.26174 | 9643 ft | 313 kts | 84° |
| 2026-04-25 17:19 | -25.63742 | -54.23749 | 10330 ft | 321 kts | 84° |
| 2026-04-25 17:19 | -25.63515 | -54.21190 | 10546 ft | 346 kts | 83° |
| 2026-04-25 17:19 | -25.63251 | -54.18473 | 10974 ft | 360 kts | 83° |
| 2026-04-25 17:20 | -25.62968 | -54.15687 | 11634 ft | 366 kts | 82° |
| 2026-04-25 17:20 | -25.62674 | -54.12873 | 12391 ft | 369 kts | 82° |
| 2026-04-25 17:20 | -25.62371 | -54.10031 | 13116 ft | 374 kts | 82° |
| 2026-04-25 17:20 | -25.62062 | -54.07152 | 13790 ft | 379 kts | 82° |
| 2026-04-25 17:21 | -25.61747 | -54.04238 | 14402 ft | 383 kts | 82° |
| 2026-04-25 17:21 | -25.61427 | -54.01290 | 15025 ft | 387 kts | 82° |
| 2026-04-25 17:21 | -25.61104 | -53.98312 | 15643 ft | 392 kts | 82° |
| 2026-04-25 17:21 | -25.60776 | -53.95290 | 16242 ft | 396 kts | 82° |
| 2026-04-25 17:22 | -25.60445 | -53.92247 | 16850 ft | 400 kts | 82° |
| 2026-04-25 17:22 | -25.60222 | -53.90207 | 17246 ft | 403 kts | 82° |
| 2026-04-25 17:22 | -25.59772 | -53.86085 | 18027 ft | 409 kts | 83° |
| 2026-04-25 17:22 | -25.59428 | -53.82942 | 18561 ft | 413 kts | 83° |
| 2026-04-25 17:23 | -25.59080 | -53.79768 | 19007 ft | 419 kts | 83° |
| 2026-04-25 17:23 | -25.58729 | -53.76535 | 19421 ft | 424 kts | 84° |
| 2026-04-25 17:23 | -25.58565 | -53.73249 | 19839 ft | 430 kts | 89° |
| 2026-04-25 17:23 | -25.58579 | -53.69915 | 20275 ft | 435 kts | 91° |
| 2026-04-25 17:24 | -25.58656 | -53.66547 | 20699 ft | 440 kts | 92° |
| 2026-04-25 17:24 | -25.58738 | -53.63135 | 21115 ft | 445 kts | 92° |
| 2026-04-25 17:24 | -25.58806 | -53.59682 | 21535 ft | 451 kts | 91° |
| 2026-04-25 17:24 | -25.58853 | -53.56194 | 21926 ft | 456 kts | 91° |
| 2026-04-25 17:25 | -25.58885 | -53.52660 | 22311 ft | 461 kts | 91° |
| 2026-04-25 17:25 | -25.58907 | -53.49095 | 22684 ft | 465 kts | 91° |
| 2026-04-25 17:25 | -25.58924 | -53.45493 | 23060 ft | 470 kts | 90° |
| 2026-04-25 17:25 | -25.58939 | -53.41853 | 23428 ft | 475 kts | 90° |
| 2026-04-25 17:26 | -25.58954 | -53.38219 | 23730 ft | 479 kts | 90° |
| 2026-04-25 17:26 | -25.58968 | -53.34522 | 24072 ft | 482 kts | 90° |
| 2026-04-25 17:26 | -25.58982 | -53.30811 | 24476 ft | 482 kts | 90° |
| 2026-04-25 17:26 | -25.58996 | -53.27082 | 24865 ft | 484 kts | 90° |
| 2026-04-25 17:27 | -25.59010 | -53.23352 | 25208 ft | 486 kts | 90° |
| 2026-04-25 17:27 | -25.59022 | -53.19596 | 25572 ft | 488 kts | 90° |
| 2026-04-25 17:27 | -25.59034 | -53.15826 | 25929 ft | 490 kts | 90° |
| 2026-04-25 17:27 | -25.59037 | -53.14548 | 26075 ft | 490 kts | 90° |
| 2026-04-25 17:28 | -25.59054 | -53.08293 | 26860 ft | 488 kts | 89° |
| 2026-04-25 17:28 | -25.59063 | -53.04540 | 27371 ft | 486 kts | 89° |
| 2026-04-25 17:28 | -25.59070 | -53.00805 | 27886 ft | 484 kts | 89° |
| 2026-04-25 17:28 | -25.59076 | -52.97282 | 28387 ft | 482 kts | 89° |
| 2026-04-25 17:29 | -25.59081 | -52.93574 | 28921 ft | 481 kts | 89° |
| 2026-04-25 17:29 | -25.59084 | -52.89831 | 28933 ft | 489 kts | 89° |
| 2026-04-25 17:29 | -25.59090 | -52.82347 | 28948 ft | 485 kts | 89° |
| 2026-04-25 17:30 | -25.59093 | -52.74896 | 28966 ft | 483 kts | 89° |
| 2026-04-25 17:30 | -25.59091 | -52.67456 | 28959 ft | 483 kts | 89° |
| 2026-04-25 17:31 | -25.59086 | -52.60012 | 28950 ft | 482 kts | 89° |
| 2026-04-25 17:31 | -25.59077 | -52.52580 | 28967 ft | 481 kts | 89° |
| 2026-04-25 17:32 | -25.59064 | -52.45168 | 28958 ft | 481 kts | 89° |
| 2026-04-25 17:32 | -25.59048 | -52.37769 | 28962 ft | 480 kts | 89° |
| 2026-04-25 17:33 | -25.59028 | -52.30368 | 28967 ft | 480 kts | 89° |
| 2026-04-25 17:33 | -25.59004 | -52.22980 | 28963 ft | 479 kts | 89° |
| 2026-04-25 17:34 | -25.58977 | -52.15648 | 28971 ft | 479 kts | 88° |
| 2026-04-25 17:34 | -25.58946 | -52.08266 | 28970 ft | 479 kts | 88° |
| 2026-04-25 17:35 | -25.58911 | -52.00884 | 28970 ft | 479 kts | 89° |
| 2026-04-25 17:35 | -25.58873 | -51.93663 | 28973 ft | 479 kts | 89° |
| 2026-04-25 17:36 | -25.58831 | -51.86284 | 28973 ft | 479 kts | 89° |
| 2026-04-25 17:36 | -25.58785 | -51.78908 | 28981 ft | 479 kts | 89° |
| 2026-04-25 17:37 | -25.58735 | -51.71525 | 28983 ft | 479 kts | 89° |
| 2026-04-25 17:37 | -25.58682 | -51.64155 | 28981 ft | 478 kts | 89° |
| 2026-04-25 17:38 | -25.58645 | -51.59274 | 28978 ft | 478 kts | 89° |
| 2026-04-25 17:38 | -25.58566 | -51.49468 | 28979 ft | 478 kts | 89° |
| 2026-04-25 17:39 | -25.58502 | -51.42113 | 28970 ft | 478 kts | 89° |
| 2026-04-25 17:39 | -25.58435 | -51.34754 | 28976 ft | 478 kts | 89° |
| 2026-04-25 17:40 | -25.58365 | -51.27389 | 28977 ft | 479 kts | 89° |
| 2026-04-25 17:40 | -25.58293 | -51.20008 | 28964 ft | 479 kts | 89° |
| 2026-04-25 17:41 | -25.58216 | -51.12621 | 28975 ft | 479 kts | 89° |
| 2026-04-25 17:41 | -25.58136 | -51.05231 | 28955 ft | 480 kts | 89° |
| 2026-04-25 17:42 | -25.58053 | -50.98022 | 28959 ft | 480 kts | 88° |
| 2026-04-25 17:42 | -25.57960 | -50.90620 | 28961 ft | 480 kts | 88° |
| 2026-04-25 17:43 | -25.57863 | -50.83268 | 28948 ft | 479 kts | 89° |
| 2026-04-25 17:43 | -25.57766 | -50.75972 | 28894 ft | 462 kts | 88° |
| 2026-04-25 17:44 | -25.57717 | -50.72421 | 28570 ft | 457 kts | 88° |
| 2026-04-25 17:44 | -25.57669 | -50.68923 | 28264 ft | 453 kts | 88° |
| 2026-04-25 17:44 | -25.57619 | -50.65440 | 27881 ft | 450 kts | 88° |
| 2026-04-25 17:44 | -25.57569 | -50.61989 | 27516 ft | 446 kts | 89° |
| 2026-04-25 17:45 | -25.57518 | -50.58563 | 27154 ft | 444 kts | 89° |
| 2026-04-25 17:45 | -25.57501 | -50.57450 | 27026 ft | 443 kts | 89° |
| 2026-04-25 17:45 | -25.57416 | -50.51807 | 26436 ft | 439 kts | 89° |
| 2026-04-25 17:45 | -25.57364 | -50.48430 | 26065 ft | 437 kts | 89° |
| 2026-04-25 17:46 | -25.57311 | -50.45073 | 25704 ft | 435 kts | 89° |
| 2026-04-25 17:46 | -25.57258 | -50.41732 | 25331 ft | 434 kts | 89° |
| 2026-04-25 17:46 | -25.57204 | -50.38393 | 24967 ft | 432 kts | 89° |
| 2026-04-25 17:46 | -25.57150 | -50.35073 | 24602 ft | 431 kts | 89° |
| 2026-04-25 17:47 | -25.57095 | -50.31752 | 24222 ft | 430 kts | 89° |
| 2026-04-25 17:47 | -25.57040 | -50.28440 | 23861 ft | 429 kts | 89° |
| 2026-04-25 17:47 | -25.56984 | -50.25136 | 23489 ft | 428 kts | 89° |
| 2026-04-25 17:47 | -25.56928 | -50.21878 | 23077 ft | 426 kts | 89° |
| 2026-04-25 17:48 | -25.56814 | -50.15350 | 22332 ft | 421 kts | 89° |
| 2026-04-25 17:48 | -25.56756 | -50.12121 | 21976 ft | 418 kts | 89° |
| 2026-04-25 17:48 | -25.56703 | -50.08912 | 21624 ft | 415 kts | 91° |
| 2026-04-25 17:49 | -25.57089 | -50.05783 | 21252 ft | 408 kts | 111° |
| 2026-04-25 17:49 | -25.58304 | -50.02993 | 20935 ft | 397 kts | 128° |
| 2026-04-25 17:49 | -25.59857 | -50.00496 | 20608 ft | 393 kts | 129° |
| 2026-04-25 17:49 | -25.61351 | -49.98136 | 20270 ft | 391 kts | 129° |
| 2026-04-25 17:50 | -25.62896 | -49.95668 | 19918 ft | 389 kts | 128° |
| 2026-04-25 17:50 | -25.64424 | -49.93200 | 19586 ft | 387 kts | 128° |
| 2026-04-25 17:50 | -25.65934 | -49.90746 | 19238 ft | 385 kts | 128° |
| 2026-04-25 17:50 | -25.67438 | -49.88291 | 18886 ft | 383 kts | 128° |
| 2026-04-25 17:51 | -25.68913 | -49.85882 | 18548 ft | 381 kts | 128° |
| 2026-04-25 17:51 | -25.70395 | -49.83459 | 18182 ft | 380 kts | 127° |
| 2026-04-25 17:51 | -25.71871 | -49.81044 | 17801 ft | 377 kts | 127° |
| 2026-04-25 17:51 | -25.73339 | -49.78640 | 17436 ft | 374 kts | 127° |
| 2026-04-25 17:52 | -25.74794 | -49.76258 | 17079 ft | 371 kts | 127° |
| 2026-04-25 17:52 | -25.75282 | -49.75460 | 16965 ft | 370 kts | 127° |
| 2026-04-25 17:52 | -25.77664 | -49.71557 | 16385 ft | 365 kts | 127° |
| 2026-04-25 17:52 | -25.79084 | -49.69230 | 16074 ft | 363 kts | 127° |
| 2026-04-25 17:53 | -25.80495 | -49.66916 | 15688 ft | 361 kts | 127° |
| 2026-04-25 17:53 | -25.81906 | -49.64602 | 15301 ft | 361 kts | 127° |
| 2026-04-25 17:53 | -25.83309 | -49.62298 | 14897 ft | 360 kts | 127° |
| 2026-04-25 17:53 | -25.84711 | -49.59994 | 14510 ft | 360 kts | 127° |
| 2026-04-25 17:54 | -25.86113 | -49.57689 | 14086 ft | 361 kts | 127° |
| 2026-04-25 17:54 | -25.87519 | -49.55377 | 13661 ft | 362 kts | 127° |
| 2026-04-25 17:54 | -25.88924 | -49.53064 | 13225 ft | 361 kts | 127° |
| 2026-04-25 17:54 | -25.90327 | -49.50754 | 12804 ft | 360 kts | 127° |
| 2026-04-25 17:55 | -25.91251 | -49.49232 | 12532 ft | 359 kts | 127° |
| 2026-04-25 17:55 | -25.93094 | -49.46195 | 12000 ft | 357 kts | 127° |
| 2026-04-25 17:55 | -25.94473 | -49.43899 | 11599 ft | 356 kts | 123° |
| 2026-04-25 17:55 | -25.95348 | -49.41334 | 11178 ft | 359 kts | 98° |
| 2026-04-25 17:56 | -25.95245 | -49.38589 | 10842 ft | 353 kts | 74° |
| 2026-04-25 17:56 | -25.94713 | -49.36919 | 10654 ft | 341 kts | 62° |
| 2026-04-25 17:56 | -25.93408 | -49.34813 | 10394 ft | 324 kts | 44° |
| 2026-04-25 17:56 | -25.91885 | -49.33041 | 10153 ft | 312 kts | 41° |
| 2026-04-25 17:57 | -25.90371 | -49.31354 | 9882 ft | 302 kts | 41° |
| 2026-04-25 17:57 | -25.88893 | -49.29717 | 9640 ft | 299 kts | 41° |
| 2026-04-25 17:57 | -25.87431 | -49.28089 | 9395 ft | 297 kts | 41° |
| 2026-04-25 17:57 | -25.86468 | -49.27011 | 9233 ft | 296 kts | 41° |
| 2026-04-25 17:58 | -25.84536 | -49.24838 | 8931 ft | 294 kts | 42° |
| 2026-04-25 17:58 | -25.83101 | -49.23217 | 8690 ft | 294 kts | 42° |
| 2026-04-25 17:58 | -25.81674 | -49.21602 | 8451 ft | 293 kts | 42° |
| 2026-04-25 17:58 | -25.80249 | -49.19988 | 8217 ft | 293 kts | 42° |
| 2026-04-25 17:59 | -25.78822 | -49.18373 | 7970 ft | 293 kts | 42° |
| 2026-04-25 17:59 | -25.77399 | -49.16761 | 7764 ft | 292 kts | 42° |
| 2026-04-25 17:59 | -25.75992 | -49.15168 | 7505 ft | 292 kts | 42° |
| 2026-04-25 17:59 | -25.74580 | -49.13568 | 7280 ft | 289 kts | 42° |
| 2026-04-25 18:00 | -25.73181 | -49.11986 | 7056 ft | 286 kts | 42° |
| 2026-04-25 18:00 | -25.71779 | -49.10427 | 6818 ft | 284 kts | 40° |
| 2026-04-25 18:00 | -25.70359 | -49.08911 | 6565 ft | 282 kts | 40° |
| 2026-04-25 18:00 | -25.68954 | -49.07419 | 6300 ft | 276 kts | 40° |
| 2026-04-25 18:01 | -25.67588 | -49.05965 | 6042 ft | 269 kts | 41° |
| 2026-04-25 18:01 | -25.66159 | -49.04703 | 5773 ft | 256 kts | 20° |
| 2026-04-25 18:01 | -25.64494 | -49.04489 | 5593 ft | 232 kts | 341° |
| 2026-04-25 18:01 | -25.63232 | -49.05375 | 5414 ft | 207 kts | 304° |
| 2026-04-25 18:02 | -25.62403 | -49.06608 | 5226 ft | 194 kts | 306° |
| 2026-04-25 18:02 | -25.61558 | -49.07723 | 5120 ft | 183 kts | 310° |
| 2026-04-25 18:02 | -25.60696 | -49.08718 | 4907 ft | 175 kts | 312° |
| 2026-04-25 18:02 | -25.59886 | -49.09631 | 4716 ft | 165 kts | 311° |
| 2026-04-25 18:03 | -25.59121 | -49.10496 | 4540 ft | 149 kts | 311° |
| 2026-04-25 18:03 | -25.58402 | -49.11308 | 4322 ft | 147 kts | 312° |
| 2026-04-25 18:03 | -25.57694 | -49.12110 | 4134 ft | 145 kts | 312° |
| 2026-04-25 18:03 | -25.56988 | -49.12902 | 3945 ft | 144 kts | 312° |
| 2026-04-25 18:04 | -25.56291 | -49.13682 | 3791 ft | 141 kts | 309° |
| 2026-04-25 18:04 | -25.55607 | -49.14460 | 3605 ft | 142 kts | 309° |
| 2026-04-25 18:04 | -25.54914 | -49.15240 | 3409 ft | 142 kts | 310° |
| 2026-04-25 18:04 | -25.54203 | -49.16042 | 3222 ft | 151 kts | 312° |
| 2026-04-25 18:05 | -25.53471 | -49.16880 | 3023 ft | 152 kts | 310° |
| 2026-04-25 18:05 | -25.52838 | -49.17605 | 2993 ft | 101 kts | 313° |
| 2026-04-25 18:05 | -25.52494 | -49.17984 | 2995 ft | 46 kts | 315° |
| 2026-04-25 18:05 | -25.52333 | -49.18135 | 2996 ft | 7 kts | 284° |
| 2026-04-25 18:06 | -25.52340 | -49.18150 | 2996 ft | 2 kts | 200° |
| 2026-04-25 18:06 | -25.52367 | -49.18118 | 2996 ft | 12 kts | 131° |
| 2026-04-25 18:06 | -25.52460 | -49.18013 | 2995 ft | 24 kts | 148° |
| 2026-04-25 18:06 | -25.52619 | -49.18000 | 2995 ft | 16 kts | 178° |
| 2026-04-25 18:07 | -25.52641 | -49.17999 | 2995 ft | 0 kts | 178° |
| 2026-04-25 18:07 | -25.52645 | -49.17999 | 2995 ft | 4 kts | 178° |
| 2026-04-25 18:07 | -25.52714 | -49.17997 | 2994 ft | 16 kts | 178° |
| 2026-04-25 18:07 | -25.52861 | -49.17981 | 2992 ft | 24 kts | 150° |
| 2026-04-25 18:08 | -25.52969 | -49.17859 | 2994 ft | 21 kts | 113° |
| 2026-04-25 18:08 | -25.52979 | -49.17697 | 2994 ft | 21 kts | 92° |
| 2026-04-25 18:08 | -25.53054 | -49.17570 | 2995 ft | 20 kts | 136° |
| 2026-04-25 18:08 | -25.53150 | -49.17461 | 2995 ft | 20 kts | 134° |
| 2026-04-25 18:09 | -25.53244 | -49.17355 | 2995 ft | 19 kts | 136° |
| 2026-04-25 18:09 | -25.53338 | -49.17256 | 2995 ft | 18 kts | 148° |
| 2026-04-25 18:09 | -25.53429 | -49.17266 | 2995 ft | 14 kts | 153° |
| 2026-04-25 18:09 | -25.53476 | -49.17221 | 2995 ft | 11 kts | 154° |
| 2026-04-25 18:10 | -25.53521 | -49.17257 | 2995 ft | 2 kts | 225° |
| 2026-04-25 18:10 | -25.53529 | -49.17265 | 2995 ft | 0 kts | 225° |